Impacts TAF Board
For situational awareness. Not to be used for flight planning purposes.
IDs:

KTEX - Telluride Rgnl, CO, US

Issued at 1724 UTC 17 Nov 2019
Updated at 2047 UTC 17 Nov 2019
Potential Impact None Slight Moderate High
Time2035Z 17/21Z 17/22Z 17/23Z 18/00Z 18/01Z 18/02Z 18/03Z 18/04Z 18/05Z 18/06Z 18/07Z 18/08Z 18/09Z>>
Type OBS PRVL PRVL PRVL PRVL PRVL PRVL PRVL PRVL PRVL PRVL PRVL PRVL PRVL
VIS 10 >6 >6 >6 >6 >6 >6 >6 >6 >6 >6 >6 >6 >6
CIG -- -- -- -- -- -- -- -- -- -- -- -- -- --
Cover CLR SKC SKC SKC SKC SKC FEW FEW FEW FEW FEW FEW FEW FEW
FltCat VFR VFR VFR VFR VFR VFR VFR VFR VFR VFR VFR VFR VFR VFR
WX -- -- -- -- -- -- -- -- -- -- -- -- -- --
WDir 270 280 280 280 280 280 140 140 140 140 140 140 140 140
WSpd 11 7 7 7 7 7 5 5 5 5 5 5 5 5
WGst 14 -- -- -- -- -- -- -- -- -- -- -- -- --
Raw TAF
KTEX 171724Z 1718/1818 00000KT P6SM SKC
  FM172100 28007KT P6SM SKC
  FM180200 14005KT P6SM FEW250
  FM181400 00000KT P6SM SKC


Raw METAR
KTEX 172035Z AUTO 27011G14KT 10SM CLR 11/M07 A3030 RMK AO2
KTEX 172015Z AUTO 28007G19KT 250V320 10SM CLR 10/M07 A3030 RMK AO2
KTEX 171955Z AUTO 28012G20KT 10SM CLR 10/M07 A3031 RMK AO2
KTEX 171935Z AUTO 27011G20KT 10SM CLR 10/M06 A3032 RMK AO2
KTEX 171915Z AUTO 27010G15KT 10SM CLR 10/M07 A3033 RMK AO2
KTEX 171855Z AUTO 27010G16KT 10SM CLR 10/M07 A3033 RMK AO2
KTEX 171835Z AUTO 27008KT 10SM CLR 10/M09 A3035 RMK AO2
KTEX 171815Z AUTO 00000KT 10SM CLR 08/M11 A3036 RMK AO2
KTEX 171755Z AUTO 26003KT 10SM CLR 08/M12 A3036 RMK AO2
KTEX 171735Z AUTO 19003KT 10SM CLR 06/M12 A3036 RMK AO2

METAR Board
Radar Display
Forecast Discussion
For situational awareness. Not to be used for flight planning purposes.